Time;durP1;ratioP1;P1;durP2;ratioP2;P2;SDS_P1;SDS_P2;PMS_P1;PMS_P2;Temp;Humidity;BMP_temperature;BMP_pressure;BME280_temperature;BME280_humidity;BME280_pressure;Samples;Min_cycle;Max_cycle;Signal;HPM_P1;HPM_P2
2023/01/08 00:01:44;;;;;;;6.60;4.40;;;;;;;;;;5057484;28;20542;-83
2023/01/08 00:04:12;;;;;;;6.17;5.13;;;;;;;;;;5055591;28;20484;-82
2023/01/08 00:06:39;;;;;;;5.63;5.00;;;;;;;;;;5051630;28;20467;-83
2023/01/08 00:09:05;;;;;;;5.60;5.03;;;;;;;;;;5057688;28;20497;-83
2023/01/08 00:11:31;;;;;;;6.00;4.97;;;;;;;;;;5052916;28;20464;-83
2023/01/08 00:13:58;;;;;;;5.70;5.03;;;;;;;;;;5055793;28;20836;-83
2023/01/08 00:16:24;;;;;;;5.00;4.60;;;;;;;;;;5056550;28;20461;-83
2023/01/08 00:18:50;;;;;;;6.70;4.77;;;;;;;;;;5055825;28;20490;-83
2023/01/08 00:21:19;;;;;;;5.50;4.73;;;;;;;;;;5052071;28;20972;-82
2023/01/08 00:23:45;;;;;;;5.60;4.80;;;;;;;;;;5054537;28;20992;-83
2023/01/08 00:26:13;;;;;;;4.93;4.43;;;;;;;;;;5049806;28;20461;-83
2023/01/08 00:28:40;;;;;;;5.17;4.67;;;;;;;;;;5052221;28;20472;-83
2023/01/08 00:31:07;;;;;;;4.40;4.00;;;;;;;;;;5054167;28;20458;-83
2023/01/08 00:33:34;;;;;;;6.00;5.40;;;;;;;;;;5055365;28;20567;-83
2023/01/08 00:36:00;;;;;;;6.00;5.37;;;;;;;;;;5054386;28;20445;-83
2023/01/08 00:38:29;;;;;;;5.70;4.77;;;;;;;;;;5051898;28;20479;-83
2023/01/08 00:40:55;;;;;;;5.10;4.60;;;;;;;;;;5053145;28;20440;-83
2023/01/08 00:43:22;;;;;;;5.80;5.30;;;;;;;;;;5052423;28;20483;-82
2023/01/08 00:45:50;;;;;;;5.97;5.37;;;;;;;;;;5055578;28;20483;-83
2023/01/08 00:48:16;;;;;;;6.47;4.53;;;;;;;;;;5050302;28;20483;-83
2023/01/08 00:50:43;;;;;;;6.70;4.97;;;;;;;;;;5054029;28;20460;-83
2023/01/08 00:53:09;;;;;;;5.73;4.60;;;;;;;;;;5054713;28;20477;-84
2023/01/08 00:55:37;;;;;;;9.33;7.10;;;;;;;;;;5053590;28;20464;-83
2023/01/08 00:58:03;;;;;;;6.77;5.67;;;;;;;;;;5060355;28;20463;-83
2023/01/08 01:00:29;;;;;;;5.20;4.70;;;;;;;;;;5057934;28;20440;-82
2023/01/08 01:02:56;;;;;;;5.43;4.80;;;;;;;;;;5051571;28;20475;-83
2023/01/08 01:05:22;;;;;;;5.03;4.63;;;;;;;;;;5053405;28;20457;-83
2023/01/08 01:07:48;;;;;;;6.60;5.37;;;;;;;;;;5055884;28;20986;-82
2023/01/08 01:10:15;;;;;;;6.00;5.23;;;;;;;;;;5053470;28;20460;-83
2023/01/08 01:12:44;;;;;;;6.87;5.40;;;;;;;;;;5051285;28;20839;-83
2023/01/08 01:15:12;;;;;;;5.70;4.80;;;;;;;;;;5053240;28;20470;-83
2023/01/08 01:17:39;;;;;;;5.83;5.30;;;;;;;;;;5053291;28;20482;-83
2023/01/08 01:20:05;;;;;;;5.63;5.00;;;;;;;;;;5052644;28;20507;-83
2023/01/08 01:22:32;;;;;;;5.10;4.43;;;;;;;;;;5050245;28;20503;-82
2023/01/08 01:24:58;;;;;;;9.23;4.53;;;;;;;;;;5053558;28;21026;-83
2023/01/08 01:27:25;;;;;;;6.07;5.40;;;;;;;;;;5053298;28;20471;-83
2023/01/08 01:29:53;;;;;;;10.00;5.23;;;;;;;;;;5051813;28;20464;-83
2023/01/08 01:32:20;;;;;;;5.43;4.77;;;;;;;;;;5050128;28;20460;-83
2023/01/08 01:34:46;;;;;;;5.80;5.30;;;;;;;;;;5049770;28;20481;-83
2023/01/08 01:37:13;;;;;;;5.87;5.37;;;;;;;;;;5054959;28;20467;-83
2023/01/08 01:39:39;;;;;;;5.90;4.87;;;;;;;;;;5050556;28;20480;-83
2023/01/08 01:42:38;;;;;;;6.17;4.77;;;;;;;;;;5051042;28;20459;-83
2023/01/08 01:44:53;;;;;;;5.13;4.70;;;;;;;;;;5054409;28;20464;-83
2023/01/08 01:47:22;;;;;;;6.70;5.13;;;;;;;;;;5051371;28;20456;-83
2023/01/08 01:49:50;;;;;;;6.27;5.70;;;;;;;;;;5051726;28;20472;-83
2023/01/08 01:52:16;;;;;;;5.47;5.00;;;;;;;;;;5051054;28;20465;-83
2023/01/08 01:54:43;;;;;;;7.00;6.30;;;;;;;;;;5046687;28;20483;-83
2023/01/08 01:57:10;;;;;;;5.77;5.10;;;;;;;;;;5053477;28;20448;-83
2023/01/08 01:59:38;;;;;;;5.87;5.37;;;;;;;;;;5047114;28;20442;-83
2023/01/08 02:02:05;;;;;;;6.20;5.60;;;;;;;;;;5058240;28;20862;-83
2023/01/08 02:04:32;;;;;;;5.07;4.60;;;;;;;;;;5049487;28;20471;-83
2023/01/08 02:07:01;;;;;;;5.73;4.57;;;;;;;;;;5050431;28;20461;-83
2023/01/08 02:09:40;;;;;;;6.23;4.93;;;;;;;;;;5071869;28;20852;-83
2023/01/08 02:12:16;;;;;;;5.10;4.70;;;;;;;;;;5071970;28;20460;-83
2023/01/08 02:14:48;;;;;;;6.77;4.80;;;;;;;;;;5071665;28;20482;-82
2023/01/08 02:17:16;;;;;;;6.10;5.23;;;;;;;;;;5071729;28;20466;-83
2023/01/08 02:19:45;;;;;;;9.50;5.60;;;;;;;;;;5052477;28;20459;-83
2023/01/08 02:22:19;;;;;;;5.40;4.67;;;;;;;;;;5051350;28;20459;-83
2023/01/08 02:24:51;;;;;;;5.53;4.70;;;;;;;;;;5074576;28;20977;-83
2023/01/08 02:27:20;;;;;;;6.60;5.80;;;;;;;;;;5073516;28;20442;-83
2023/01/08 02:29:47;;;;;;;5.37;4.57;;;;;;;;;;5073194;28;20440;-83
2023/01/08 02:32:14;;;;;;;6.27;4.90;;;;;;;;;;5074034;28;20457;-82
2023/01/08 02:34:40;;;;;;;5.63;4.93;;;;;;;;;;5076460;28;20859;-83
2023/01/08 02:37:08;;;;;;;6.57;4.70;;;;;;;;;;5073142;28;20484;-83
2023/01/08 02:39:42;;;;;;;7.17;5.77;;;;;;;;;;5075804;28;20474;-82
2023/01/08 02:42:15;;;;;;;5.00;4.50;;;;;;;;;;5076942;28;20927;-83
2023/01/08 02:44:49;;;;;;;6.50;5.87;;;;;;;;;;5072564;28;20475;-83
2023/01/08 02:47:20;;;;;;;6.03;5.43;;;;;;;;;;5072076;28;20782;-83
2023/01/08 02:49:48;;;;;;;5.97;5.37;;;;;;;;;;5076416;28;20467;-83
2023/01/08 02:52:17;;;;;;;6.87;6.17;;;;;;;;;;5073166;28;20544;-82
2023/01/08 02:54:44;;;;;;;6.23;4.67;;;;;;;;;;5077240;28;20489;-83
2023/01/08 02:57:12;;;;;;;6.90;6.20;;;;;;;;;;5074809;28;20456;-83
2023/01/08 02:59:39;;;;;;;6.63;5.93;;;;;;;;;;5074960;28;20546;-83
2023/01/08 03:02:07;;;;;;;6.00;5.30;;;;;;;;;;5073865;28;20463;-83
2023/01/08 03:04:36;;;;;;;6.20;4.67;;;;;;;;;;5070469;28;21073;-83
2023/01/08 03:07:02;;;;;;;6.03;5.43;;;;;;;;;;5074529;28;20495;-83
2023/01/08 03:09:29;;;;;;;6.20;5.60;;;;;;;;;;5069845;28;20481;-83
2023/01/08 03:11:59;;;;;;;6.67;5.40;;;;;;;;;;5075994;28;20463;-83
2023/01/08 03:14:28;;;;;;;6.30;5.70;;;;;;;;;;5069422;28;20476;-83
2023/01/08 03:16:55;;;;;;;6.20;5.70;;;;;;;;;;5069836;28;20459;-83
2023/01/08 03:19:25;;;;;;;5.87;5.37;;;;;;;;;;5077064;28;21462;-83
2023/01/08 03:21:52;;;;;;;7.30;5.87;;;;;;;;;;5068439;28;20444;-84
2023/01/08 03:24:21;;;;;;;5.53;4.77;;;;;;;;;;5066467;28;20882;-82
2023/01/08 03:26:48;;;;;;;6.97;5.73;;;;;;;;;;5065457;28;20810;-83
2023/01/08 03:29:15;;;;;;;6.27;5.77;;;;;;;;;;5072349;28;20498;-83
2023/01/08 03:31:43;;;;;;;5.00;4.60;;;;;;;;;;5073390;28;20455;-83
2023/01/08 03:34:10;;;;;;;10.60;6.07;;;;;;;;;;5075177;28;20477;-83
2023/01/08 03:36:38;;;;;;;8.03;5.50;;;;;;;;;;5076689;28;20463;-83
2023/01/08 03:39:07;;;;;;;6.33;5.73;;;;;;;;;;5075569;28;20866;-83
2023/01/08 03:41:35;;;;;;;5.90;5.40;;;;;;;;;;5072200;28;20442;-83
2023/01/08 03:44:02;;;;;;;6.30;5.63;;;;;;;;;;5068583;28;20464;-83
2023/01/08 03:46:31;;;;;;;6.33;5.70;;;;;;;;;;5072347;28;20554;-83
2023/01/08 03:48:58;;;;;;;7.00;6.20;;;;;;;;;;5071816;28;20478;-83
2023/01/08 03:51:25;;;;;;;6.80;6.10;;;;;;;;;;5068504;28;20536;-83
2023/01/08 03:53:57;;;;;;;7.43;6.73;;;;;;;;;;5069679;28;20478;-83
2023/01/08 03:56:23;;;;;;;6.60;6.00;;;;;;;;;;5072996;28;21035;-83
2023/01/08 03:58:49;;;;;;;6.30;5.70;;;;;;;;;;5075537;28;20476;-83
2023/01/08 04:01:16;;;;;;;5.53;5.03;;;;;;;;;;5072656;28;20462;-83
2023/01/08 04:03:42;;;;;;;6.60;5.60;;;;;;;;;;5071239;28;20459;-83
2023/01/08 04:06:08;;;;;;;7.73;5.10;;;;;;;;;;5071971;28;20460;-83
2023/01/08 04:08:35;;;;;;;5.03;4.63;;;;;;;;;;5072960;28;20856;-82
2023/01/08 04:11:02;;;;;;;6.37;4.40;;;;;;;;;;5071043;28;20460;-83
2023/01/08 04:13:29;;;;;;;6.00;5.40;;;;;;;;;;5072811;28;21034;-83
2023/01/08 04:15:56;;;;;;;6.90;5.03;;;;;;;;;;5077674;28;20467;-83
2023/01/08 04:18:23;;;;;;;7.13;5.07;;;;;;;;;;5076498;28;20475;-82
2023/01/08 04:20:49;;;;;;;5.73;5.20;;;;;;;;;;5074560;28;20460;-83
2023/01/08 04:23:16;;;;;;;5.83;5.23;;;;;;;;;;5075821;28;20477;-83
2023/01/08 04:25:42;;;;;;;6.67;4.67;;;;;;;;;;5068916;28;20459;-82
2023/01/08 04:28:10;;;;;;;5.83;5.33;;;;;;;;;;5077412;28;20481;-83
2023/01/08 04:30:36;;;;;;;5.50;5.00;;;;;;;;;;5075553;28;20458;-83
2023/01/08 04:33:03;;;;;;;7.33;5.13;;;;;;;;;;5069923;28;20863;-83
2023/01/08 04:35:29;;;;;;;5.20;4.70;;;;;;;;;;5074224;28;20463;-82
2023/01/08 04:37:56;;;;;;;5.67;5.03;;;;;;;;;;5071241;28;20475;-82
2023/01/08 04:40:22;;;;;;;5.93;4.70;;;;;;;;;;5074029;28;20455;-82
2023/01/08 04:42:48;;;;;;;5.10;4.60;;;;;;;;;;5079656;28;20467;-83
2023/01/08 04:45:16;;;;;;;6.17;4.57;;;;;;;;;;5076858;28;20466;-83
2023/01/08 04:47:42;;;;;;;8.80;5.80;;;;;;;;;;5069880;28;20475;-83
2023/01/08 04:50:09;;;;;;;6.30;4.50;;;;;;;;;;5069975;28;20474;-83
2023/01/08 04:52:35;;;;;;;7.47;4.40;;;;;;;;;;5071362;28;20462;-83
2023/01/08 04:55:02;;;;;;;6.63;5.50;;;;;;;;;;5072055;28;20487;-83
2023/01/08 04:57:28;;;;;;;6.90;4.97;;;;;;;;;;5073659;28;20464;-83
2023/01/08 04:59:54;;;;;;;6.67;5.33;;;;;;;;;;5070476;28;20447;-83
2023/01/08 05:02:22;;;;;;;8.63;6.07;;;;;;;;;;5072645;28;20467;-83
2023/01/08 05:04:48;;;;;;;8.00;5.00;;;;;;;;;;5073592;28;20979;-83
2023/01/08 05:07:15;;;;;;;5.27;4.77;;;;;;;;;;5074312;28;20463;-83
2023/01/08 05:09:41;;;;;;;6.27;5.63;;;;;;;;;;5072294;28;20513;-83
2023/01/08 05:12:07;;;;;;;6.00;4.90;;;;;;;;;;5074248;28;20462;-83
2023/01/08 05:14:34;;;;;;;11.97;5.60;;;;;;;;;;5069390;28;21000;-83
2023/01/08 05:17:00;;;;;;;11.50;5.53;;;;;;;;;;5072479;28;20459;-83
2023/01/08 05:19:28;;;;;;;5.47;4.73;;;;;;;;;;5069703;28;20487;-83
2023/01/08 05:21:54;;;;;;;6.60;5.00;;;;;;;;;;5073780;28;20470;-82
2023/01/08 05:24:21;;;;;;;8.50;4.97;;;;;;;;;;5074444;28;20473;-83
2023/01/08 05:26:47;;;;;;;5.30;4.80;;;;;;;;;;5068037;28;20460;-82
2023/01/08 05:29:13;;;;;;;6.07;4.80;;;;;;;;;;5075300;28;20483;-83
2023/01/08 05:31:39;;;;;;;5.13;4.63;;;;;;;;;;5071146;28;20465;-83
2023/01/08 05:34:06;;;;;;;6.47;4.60;;;;;;;;;;5074459;28;20478;-83
2023/01/08 05:36:33;;;;;;;7.20;5.10;;;;;;;;;;5068288;28;20447;-83
2023/01/08 05:39:00;;;;;;;6.30;5.17;;;;;;;;;;5068234;28;20471;-83
2023/01/08 05:41:26;;;;;;;8.30;5.13;;;;;;;;;;5078099;28;20455;-82
2023/01/08 05:43:52;;;;;;;6.37;5.40;;;;;;;;;;5071211;28;20474;-83
2023/01/08 05:46:19;;;;;;;7.10;6.40;;;;;;;;;;5075182;28;20819;-83
2023/01/08 05:48:45;;;;;;;8.90;5.60;;;;;;;;;;5068724;28;20476;-83
2023/01/08 05:51:11;;;;;;;7.53;5.40;;;;;;;;;;5073590;28;20473;-82
2023/01/08 05:53:39;;;;;;;5.53;4.93;;;;;;;;;;5069634;28;20475;-83
2023/01/08 05:56:07;;;;;;;5.30;4.70;;;;;;;;;;5070082;28;20482;-83
2023/01/08 05:58:33;;;;;;;5.67;5.10;;;;;;;;;;5068699;28;20472;-82
2023/01/08 06:01:03;;;;;;;7.30;5.40;;;;;;;;;;5069204;28;20466;-83
2023/01/08 06:03:29;;;;;;;4.97;4.47;;;;;;;;;;5074994;28;20796;-83
2023/01/08 06:05:57;;;;;;;8.53;5.73;;;;;;;;;;5070584;28;20527;-83
2023/01/08 06:08:24;;;;;;;8.10;5.07;;;;;;;;;;5072627;28;20485;-83
2023/01/08 06:10:51;;;;;;;6.60;5.33;;;;;;;;;;5072775;28;20459;-83
2023/01/08 06:13:18;;;;;;;6.20;5.60;;;;;;;;;;5073373;28;20539;-83
2023/01/08 06:15:44;;;;;;;14.37;6.07;;;;;;;;;;5072658;28;20480;-83
2023/01/08 06:18:10;;;;;;;5.87;4.70;;;;;;;;;;5072637;28;21008;-82
2023/01/08 06:20:37;;;;;;;5.13;4.60;;;;;;;;;;5070099;28;20461;-82
2023/01/08 06:23:03;;;;;;;5.87;5.33;;;;;;;;;;5070593;28;20829;-83
2023/01/08 06:25:29;;;;;;;6.93;5.47;;;;;;;;;;5070462;28;20455;-82
2023/01/08 06:27:57;;;;;;;5.80;5.20;;;;;;;;;;5072813;28;20477;-83
2023/01/08 06:30:23;;;;;;;5.17;4.67;;;;;;;;;;5073156;28;20455;-83
2023/01/08 06:32:50;;;;;;;15.27;4.77;;;;;;;;;;5076146;28;20999;-83
2023/01/08 06:35:16;;;;;;;10.30;4.60;;;;;;;;;;5073380;28;20485;-82
2023/01/08 06:37:42;;;;;;;5.70;5.10;;;;;;;;;;5070372;28;20470;-83
2023/01/08 06:40:09;;;;;;;5.43;5.00;;;;;;;;;;5070032;28;20451;-83
2023/01/08 06:42:35;;;;;;;8.27;4.87;;;;;;;;;;5072153;28;20459;-83
2023/01/08 06:45:03;;;;;;;8.07;5.50;;;;;;;;;;5070106;28;20934;-83
2023/01/08 06:47:30;;;;;;;5.63;4.47;;;;;;;;;;5069646;28;20482;-82
2023/01/08 06:49:58;;;;;;;6.07;4.93;;;;;;;;;;5070759;28;20853;-83
2023/01/08 06:52:25;;;;;;;7.60;4.70;;;;;;;;;;5070895;28;20463;-82
2023/01/08 06:54:51;;;;;;;5.80;5.20;;;;;;;;;;5066863;28;20480;-82
2023/01/08 06:57:17;;;;;;;5.67;4.90;;;;;;;;;;5068939;28;20467;-82
2023/01/08 06:59:44;;;;;;;3.90;3.60;;;;;;;;;;5070540;28;20964;-82
2023/01/08 07:02:12;;;;;;;7.13;5.03;;;;;;;;;;5075522;28;20463;-83
2023/01/08 07:04:39;;;;;;;5.50;4.33;;;;;;;;;;5069803;28;20546;-83
2023/01/08 07:07:05;;;;;;;5.67;4.50;;;;;;;;;;5076126;28;20524;-83
2023/01/08 07:09:33;;;;;;;5.20;4.70;;;;;;;;;;5077125;28;20479;-82
2023/01/08 07:11:59;;;;;;;6.60;5.00;;;;;;;;;;5072411;28;20464;-83
2023/01/08 07:14:25;;;;;;;5.87;4.10;;;;;;;;;;5065812;28;20845;-83
2023/01/08 07:16:52;;;;;;;5.80;4.73;;;;;;;;;;5068271;28;20463;-83
2023/01/08 07:19:19;;;;;;;5.60;5.07;;;;;;;;;;5068602;28;21026;-82
2023/01/08 07:21:46;;;;;;;6.57;4.70;;;;;;;;;;5070372;28;20467;-82
2023/01/08 07:24:12;;;;;;;7.07;5.50;;;;;;;;;;5067548;28;20498;-83
2023/01/08 07:26:39;;;;;;;5.53;4.10;;;;;;;;;;5069188;28;20446;-83
2023/01/08 07:29:06;;;;;;;5.50;3.80;;;;;;;;;;5073185;28;20509;-83
2023/01/08 07:31:32;;;;;;;4.87;4.43;;;;;;;;;;5071141;28;20517;-83
2023/01/08 07:33:59;;;;;;;6.07;4.33;;;;;;;;;;5074564;28;20482;-82
2023/01/08 07:36:27;;;;;;;7.00;4.60;;;;;;;;;;5078833;28;20479;-82
2023/01/08 07:38:54;;;;;;;4.57;4.17;;;;;;;;;;5072781;28;20481;-83
2023/01/08 07:41:20;;;;;;;4.43;4.03;;;;;;;;;;5073523;28;20469;-82
2023/01/08 07:43:47;;;;;;;6.07;4.93;;;;;;;;;;5078121;28;20470;-83
2023/01/08 07:46:14;;;;;;;9.30;4.80;;;;;;;;;;5077001;28;20463;-82
2023/01/08 07:48:40;;;;;;;6.73;5.53;;;;;;;;;;5074207;28;20494;-82
2023/01/08 07:51:07;;;;;;;4.70;3.87;;;;;;;;;;5076753;28;20470;-82
2023/01/08 07:53:36;;;;;;;7.73;5.00;;;;;;;;;;5054173;28;20490;-82
2023/01/08 07:56:02;;;;;;;4.87;4.40;;;;;;;;;;5077388;28;20481;-82
2023/01/08 07:58:30;;;;;;;4.60;4.20;;;;;;;;;;5075001;28;20486;-82
2023/01/08 08:00:56;;;;;;;5.07;4.50;;;;;;;;;;5079053;28;20447;-82
2023/01/08 08:03:23;;;;;;;5.40;4.27;;;;;;;;;;5074518;28;20477;-82
2023/01/08 08:05:49;;;;;;;6.40;5.00;;;;;;;;;;5073828;28;20452;-82
2023/01/08 08:08:16;;;;;;;5.40;4.90;;;;;;;;;;5074987;28;20525;-82
2023/01/08 08:10:43;;;;;;;6.80;5.37;;;;;;;;;;5077124;28;20455;-83
2023/01/08 08:13:10;;;;;;;5.90;5.30;;;;;;;;;;5078278;28;20467;-82
2023/01/08 08:15:37;;;;;;;5.90;5.40;;;;;;;;;;5076535;28;21015;-82
2023/01/08 08:18:04;;;;;;;6.90;6.30;;;;;;;;;;5073760;28;20997;-83
2023/01/08 08:20:30;;;;;;;8.53;6.40;;;;;;;;;;5078135;28;20465;-82
2023/01/08 08:23:00;;;;;;;5.80;5.17;;;;;;;;;;5074991;28;20466;-83
2023/01/08 08:25:26;;;;;;;6.93;6.27;;;;;;;;;;5079236;28;20443;-82
2023/01/08 08:27:55;;;;;;;6.83;6.23;;;;;;;;;;5077896;28;20569;-83
2023/01/08 08:30:22;;;;;;;5.97;5.47;;;;;;;;;;5078310;28;21300;-82
2023/01/08 08:32:48;;;;;;;7.10;6.00;;;;;;;;;;5078293;28;20446;-82
2023/01/08 08:35:14;;;;;;;8.13;6.73;;;;;;;;;;5071067;28;20470;-83
2023/01/08 08:37:41;;;;;;;7.03;6.30;;;;;;;;;;5071424;28;20992;-82
2023/01/08 08:40:08;;;;;;;7.50;5.83;;;;;;;;;;5072393;28;20462;-83
2023/01/08 08:42:34;;;;;;;6.33;5.83;;;;;;;;;;5074072;28;20450;-82
2023/01/08 08:45:02;;;;;;;6.70;5.87;;;;;;;;;;5072078;28;20467;-83
2023/01/08 08:47:28;;;;;;;6.50;5.90;;;;;;;;;;5070473;28;20447;-83
2023/01/08 08:49:54;;;;;;;8.93;5.50;;;;;;;;;;5071434;28;20486;-83
2023/01/08 08:52:21;;;;;;;4.93;4.50;;;;;;;;;;5076203;28;20444;-82
2023/01/08 08:54:47;;;;;;;6.97;5.63;;;;;;;;;;5072660;28;20471;-82
2023/01/08 08:57:13;;;;;;;6.20;5.60;;;;;;;;;;5073632;28;20484;-83
2023/01/08 08:59:40;;;;;;;5.60;5.00;;;;;;;;;;5071930;28;20482;-82
2023/01/08 09:02:07;;;;;;;5.83;3.90;;;;;;;;;;5072024;28;20855;-83
2023/01/08 09:04:34;;;;;;;6.10;4.23;;;;;;;;;;5078827;28;20463;-83
2023/01/08 09:07:00;;;;;;;7.03;4.43;;;;;;;;;;5069537;28;20459;-82
2023/01/08 09:09:27;;;;;;;5.07;4.50;;;;;;;;;;5073787;28;20471;-83
2023/01/08 09:11:53;;;;;;;5.87;4.23;;;;;;;;;;5077156;28;20455;-82
2023/01/08 09:14:19;;;;;;;4.23;3.70;;;;;;;;;;5071835;28;20478;-82
2023/01/08 09:16:46;;;;;;;6.33;3.73;;;;;;;;;;5075785;28;20494;-83
2023/01/08 09:19:13;;;;;;;4.90;4.17;;;;;;;;;;5070497;28;20482;-82
2023/01/08 09:21:40;;;;;;;6.50;4.03;;;;;;;;;;5072180;28;20463;-83
2023/01/08 09:24:07;;;;;;;9.17;3.33;;;;;;;;;;5074823;28;20468;-82
2023/01/08 09:26:33;;;;;;;7.60;4.10;;;;;;;;;;5073731;28;20495;-83
2023/01/08 09:28:59;;;;;;;4.60;3.43;;;;;;;;;;5072626;28;20472;-83
2023/01/08 09:31:26;;;;;;;4.90;3.47;;;;;;;;;;5075439;28;20448;-83
2023/01/08 09:33:52;;;;;;;3.50;3.20;;;;;;;;;;5075100;28;20478;-82
2023/01/08 09:36:20;;;;;;;5.80;3.60;;;;;;;;;;5069687;28;20493;-82
2023/01/08 09:38:46;;;;;;;3.33;3.03;;;;;;;;;;5070308;28;20473;-82
2023/01/08 09:41:16;;;;;;;3.93;3.17;;;;;;;;;;5070423;28;20455;-82
2023/01/08 09:43:44;;;;;;;4.00;2.80;;;;;;;;;;5073382;28;20467;-83
2023/01/08 09:46:12;;;;;;;3.30;3.00;;;;;;;;;;5065820;28;20533;-83
2023/01/08 09:48:39;;;;;;;9.30;3.83;;;;;;;;;;5072116;28;20479;-83
2023/01/08 09:51:07;;;;;;;4.23;3.10;;;;;;;;;;5073459;28;20458;-82
2023/01/08 09:53:34;;;;;;;4.87;3.30;;;;;;;;;;5066662;28;20486;-83
2023/01/08 09:56:02;;;;;;;6.83;3.30;;;;;;;;;;5071550;28;20467;-83
2023/01/08 09:58:32;;;;;;;5.17;3.07;;;;;;;;;;5072378;28;20470;-83
2023/01/08 10:00:59;;;;;;;4.77;3.60;;;;;;;;;;5074514;28;20454;-83
2023/01/08 10:03:29;;;;;;;4.53;3.80;;;;;;;;;;5071381;28;21185;-83
2023/01/08 10:05:55;;;;;;;4.40;3.00;;;;;;;;;;5068427;28;20446;-83
2023/01/08 10:08:21;;;;;;;5.30;2.90;;;;;;;;;;5075393;28;20470;-82
2023/01/08 10:10:49;;;;;;;5.83;3.20;;;;;;;;;;5067299;28;20456;-82
2023/01/08 10:13:16;;;;;;;3.10;2.77;;;;;;;;;;5072478;28;20468;-83
2023/01/08 10:15:42;;;;;;;4.80;3.20;;;;;;;;;;5073674;28;20489;-83
2023/01/08 10:18:10;;;;;;;5.93;3.83;;;;;;;;;;5069926;28;20487;-82
2023/01/08 10:20:38;;;;;;;3.77;3.23;;;;;;;;;;5070762;28;20459;-82
2023/01/08 10:23:11;;;;;;;4.57;3.90;;;;;;;;;;5071022;28;20463;-83
2023/01/08 10:25:48;;;;;;;3.27;2.37;;;;;;;;;;5071166;28;20888;-83
2023/01/08 10:28:18;;;;;;;5.33;2.60;;;;;;;;;;5073497;28;20463;-82
2023/01/08 10:30:45;;;;;;;3.60;2.80;;;;;;;;;;5070466;28;20474;-83
2023/01/08 10:33:12;;;;;;;6.13;2.90;;;;;;;;;;5070437;28;20850;-83
2023/01/08 10:35:40;;;;;;;4.27;2.70;;;;;;;;;;5073249;28;20472;-83
2023/01/08 10:38:06;;;;;;;5.07;2.70;;;;;;;;;;5074518;28;20481;-83
2023/01/08 10:40:36;;;;;;;2.63;2.10;;;;;;;;;;5072314;28;20445;-83
2023/01/08 10:43:06;;;;;;;3.93;2.80;;;;;;;;;;5071570;28;20945;-82
2023/01/08 10:45:33;;;;;;;6.03;2.10;;;;;;;;;;5073397;28;20843;-82
2023/01/08 10:48:01;;;;;;;2.83;2.20;;;;;;;;;;5071598;28;20468;-83
2023/01/08 10:50:28;;;;;;;2.73;1.83;;;;;;;;;;5074389;28;20458;-82
2023/01/08 10:52:55;;;;;;;3.53;2.00;;;;;;;;;;5074171;28;20522;-83
2023/01/08 10:55:22;;;;;;;2.93;2.43;;;;;;;;;;5076776;28;20466;-83
2023/01/08 10:57:53;;;;;;;2.10;1.50;;;;;;;;;;5072744;28;20509;-83
2023/01/08 11:00:23;;;;;;;4.30;1.90;;;;;;;;;;5071557;28;20467;-83
2023/01/08 11:02:51;;;;;;;7.27;2.63;;;;;;;;;;5073235;28;20539;-83
2023/01/08 11:05:18;;;;;;;1.97;1.70;;;;;;;;;;5072579;28;20459;-83
2023/01/08 11:07:48;;;;;;;4.00;1.50;;;;;;;;;;5074216;28;20844;-83
2023/01/08 11:10:22;;;;;;;6.80;2.20;;;;;;;;;;5080088;28;20493;-83
2023/01/08 11:12:53;;;;;;;4.00;2.03;;;;;;;;;;5074929;28;20473;-82
2023/01/08 11:15:38;;;;;;;2.50;1.40;;;;;;;;;;5076816;28;20467;-83
2023/01/08 11:18:22;;;;;;;4.40;1.83;;;;;;;;;;5079223;28;20972;-83
2023/01/08 11:20:50;;;;;;;5.57;2.03;;;;;;;;;;5077724;28;20477;-82
2023/01/08 11:23:18;;;;;;;6.67;2.50;;;;;;;;;;5077697;28;20486;-83
2023/01/08 11:25:47;;;;;;;6.00;2.40;;;;;;;;;;5071331;28;20466;-83
2023/01/08 11:28:16;;;;;;;7.43;2.23;;;;;;;;;;5079227;28;20481;-82
2023/01/08 11:30:44;;;;;;;4.40;1.97;;;;;;;;;;5078406;28;20451;-83
2023/01/08 11:33:14;;;;;;;7.20;2.27;;;;;;;;;;5076784;28;20464;-82
2023/01/08 11:35:42;;;;;;;3.73;2.00;;;;;;;;;;5074492;28;20479;-82
2023/01/08 11:38:12;;;;;;;6.20;2.53;;;;;;;;;;5072768;28;20508;-83
2023/01/08 11:40:42;;;;;;;4.37;1.93;;;;;;;;;;5078705;28;20455;-83
2023/01/08 11:43:16;;;;;;;2.57;2.10;;;;;;;;;;5078710;28;20463;-83
2023/01/08 11:45:48;;;;;;;4.40;2.10;;;;;;;;;;5076478;28;20437;-83
2023/01/08 11:48:22;;;;;;;4.30;2.23;;;;;;;;;;5076700;28;20463;-82
2023/01/08 11:50:54;;;;;;;3.30;1.93;;;;;;;;;;5075647;28;20496;-82
2023/01/08 11:53:24;;;;;;;6.80;3.07;;;;;;;;;;5074600;28;20471;-83
2023/01/08 11:55:57;;;;;;;2.23;1.57;;;;;;;;;;5077144;28;20443;-82
2023/01/08 11:58:35;;;;;;;2.30;2.10;;;;;;;;;;5075986;28;20477;-83
2023/01/08 12:01:11;;;;;;;2.83;1.73;;;;;;;;;;5080573;28;20449;-83
2023/01/08 12:03:40;;;;;;;6.10;2.63;;;;;;;;;;5077682;28;20475;-83
2023/01/08 12:06:13;;;;;;;4.70;1.70;;;;;;;;;;5073853;28;21075;-83
2023/01/08 12:08:47;;;;;;;4.40;2.57;;;;;;;;;;5077372;28;20939;-82
2023/01/08 12:11:16;;;;;;;8.40;1.63;;;;;;;;;;5072829;28;20446;-83
2023/01/08 12:13:57;;;;;;;11.93;5.60;;;;;;;;;;5074803;28;20478;-83
2023/01/08 12:16:29;;;;;;;4.87;1.93;;;;;;;;;;5073934;28;20494;-83
2023/01/08 12:19:07;;;;;;;3.80;2.00;;;;;;;;;;5070794;28;20484;-82
2023/01/08 12:21:38;;;;;;;8.00;2.80;;;;;;;;;;5079327;28;20462;-82
2023/01/08 12:24:15;;;;;;;8.90;3.07;;;;;;;;;;5074283;28;20466;-83
2023/01/08 12:26:48;;;;;;;4.87;2.37;;;;;;;;;;5073310;28;20818;-83
2023/01/08 12:29:19;;;;;;;2.57;2.13;;;;;;;;;;5076201;28;20478;-82
2023/01/08 12:32:06;;;;;;;6.27;2.10;;;;;;;;;;5075659;28;20961;-83
2023/01/08 12:34:37;;;;;;;10.63;1.83;;;;;;;;;;5068058;28;20471;-83
2023/01/08 12:37:06;;;;;;;4.57;1.90;;;;;;;;;;5076023;28;21429;-82
2023/01/08 12:39:40;;;;;;;8.57;2.30;;;;;;;;;;5075467;28;20487;-83
2023/01/08 12:42:08;;;;;;;6.70;2.10;;;;;;;;;;5080995;28;20455;-83
2023/01/08 12:44:36;;;;;;;4.77;1.90;;;;;;;;;;5075428;28;20475;-83
2023/01/08 12:47:04;;;;;;;5.97;1.77;;;;;;;;;;5075525;28;20850;-83
2023/01/08 12:49:35;;;;;;;9.27;2.00;;;;;;;;;;5071935;28;20979;-83
2023/01/08 12:52:04;;;;;;;5.27;2.30;;;;;;;;;;5075016;28;20447;-83
2023/01/08 12:54:34;;;;;;;11.47;3.20;;;;;;;;;;5073644;28;20854;-83
2023/01/08 12:57:06;;;;;;;5.57;3.10;;;;;;;;;;5071466;28;20484;-82
2023/01/08 12:59:37;;;;;;;6.53;2.60;;;;;;;;;;5077657;28;21046;-83
2023/01/08 13:02:07;;;;;;;4.07;2.30;;;;;;;;;;5073357;28;20452;-82
2023/01/08 13:04:40;;;;;;;6.90;1.83;;;;;;;;;;5072155;28;20475;-83
2023/01/08 13:07:10;;;;;;;6.50;1.93;;;;;;;;;;5076037;28;20805;-83
2023/01/08 13:09:37;;;;;;;14.00;3.00;;;;;;;;;;5072403;28;20474;-83
2023/01/08 13:12:05;;;;;;;4.93;2.17;;;;;;;;;;5074129;28;20467;-83
2023/01/08 13:14:40;;;;;;;14.20;2.50;;;;;;;;;;5072869;28;20482;-83
2023/01/08 13:17:07;;;;;;;8.03;2.83;;;;;;;;;;5073965;28;20475;-83
2023/01/08 13:19:37;;;;;;;4.50;2.10;;;;;;;;;;5070897;28;20474;-82
2023/01/08 13:22:03;;;;;;;7.03;2.27;;;;;;;;;;5073790;28;20459;-82
2023/01/08 13:24:31;;;;;;;4.70;1.97;;;;;;;;;;5075888;28;20890;-82
2023/01/08 13:27:09;;;;;;;9.57;3.10;;;;;;;;;;5072169;28;20455;-82
2023/01/08 13:29:38;;;;;;;7.40;2.30;;;;;;;;;;5067996;28;20475;-82
2023/01/08 13:32:05;;;;;;;10.20;2.17;;;;;;;;;;5071809;28;20436;-83
2023/01/08 13:34:37;;;;;;;11.67;3.37;;;;;;;;;;5071182;28;20481;-82
2023/01/08 13:37:04;;;;;;;5.50;2.20;;;;;;;;;;5073906;28;20876;-82
2023/01/08 13:39:34;;;;;;;7.17;1.80;;;;;;;;;;5070885;28;20566;-82
2023/01/08 13:42:20;;;;;;;6.23;2.20;;;;;;;;;;5077744;28;20458;-82
2023/01/08 13:44:49;;;;;;;10.50;2.97;;;;;;;;;;5074477;28;20479;-82
2023/01/08 13:47:19;;;;;;;6.23;1.87;;;;;;;;;;5074055;28;20455;-83
2023/01/08 13:49:48;;;;;;;12.17;1.93;;;;;;;;;;5074811;28;20480;-82
2023/01/08 13:52:27;;;;;;;6.80;1.60;;;;;;;;;;5068592;28;20515;-82
2023/01/08 13:54:53;;;;;;;8.13;3.27;;;;;;;;;;5071779;28;20454;-83
2023/01/08 13:57:20;;;;;;;19.03;2.67;;;;;;;;;;5074086;28;20489;-83
2023/01/08 13:59:52;;;;;;;4.83;1.67;;;;;;;;;;5075260;28;20473;-83
2023/01/08 14:02:22;;;;;;;8.27;2.43;;;;;;;;;;5067986;28;20447;-83
2023/01/08 14:04:49;;;;;;;6.50;2.00;;;;;;;;;;5068956;28;20479;-82
2023/01/08 14:07:15;;;;;;;9.97;2.20;;;;;;;;;;5072568;28;20461;-83
2023/01/08 14:09:41;;;;;;;5.20;2.23;;;;;;;;;;5070803;28;20846;-83
2023/01/08 14:12:13;;;;;;;10.07;3.60;;;;;;;;;;5071279;28;20450;-83
2023/01/08 14:14:39;;;;;;;8.37;3.23;;;;;;;;;;5068971;28;20470;-83
2023/01/08 14:17:15;;;;;;;11.40;2.07;;;;;;;;;;5071670;28;20486;-83
2023/01/08 14:19:41;;;;;;;8.93;4.43;;;;;;;;;;5072452;28;20467;-83
2023/01/08 14:22:11;;;;;;;10.20;2.10;;;;;;;;;;5075099;28;20447;-82
2023/01/08 14:24:37;;;;;;;7.17;1.90;;;;;;;;;;5067602;28;20481;-82
2023/01/08 14:27:04;;;;;;;10.77;3.10;;;;;;;;;;5071591;28;20445;-82
2023/01/08 14:29:33;;;;;;;13.10;2.57;;;;;;;;;;5077959;28;20470;-83
2023/01/08 14:32:00;;;;;;;7.03;2.40;;;;;;;;;;5064074;28;20448;-83
2023/01/08 14:34:29;;;;;;;7.10;2.80;;;;;;;;;;5073028;28;20474;-83
2023/01/08 14:36:56;;;;;;;9.77;3.30;;;;;;;;;;5072937;28;20456;-83
2023/01/08 14:39:23;;;;;;;7.47;3.30;;;;;;;;;;5065338;28;20495;-83
2023/01/08 14:44:33;;;;;;;15.87;2.80;;;;;;;;;;5050848;28;20471;-82
2023/01/08 14:46:59;;;;;;;7.63;2.83;;;;;;;;;;5070674;28;20467;-83
2023/01/08 14:49:27;;;;;;;10.80;3.57;;;;;;;;;;5063871;28;20472;-82
2023/01/08 14:51:56;;;;;;;6.63;2.37;;;;;;;;;;5070722;28;20438;-82